createdAt,value
2018-07-02T00:00:09.479Z,5.00
2018-07-02T00:02:38.165Z,2.53
2018-07-02T00:05:06.946Z,2.60
2018-07-02T00:07:35.554Z,2.30
2018-07-02T00:10:04.655Z,5.30
2018-07-02T00:12:33.239Z,2.53
2018-07-02T00:15:01.908Z,2.77
2018-07-02T00:17:30.552Z,2.63
2018-07-02T00:19:59.206Z,3.40
2018-07-02T00:22:27.859Z,3.10
2018-07-02T00:24:56.519Z,2.30
2018-07-02T00:27:25.130Z,1.60
2018-07-02T00:29:53.779Z,2.07
2018-07-02T00:32:22.495Z,3.20
2018-07-02T00:34:51.166Z,2.73
2018-07-02T00:37:19.852Z,2.43
2018-07-02T00:39:48.488Z,2.43
2018-07-02T00:42:17.106Z,2.80
2018-07-02T00:44:46.633Z,2.63
2018-07-02T00:47:15.386Z,4.37
2018-07-02T00:49:44.057Z,1.63
2018-07-02T00:52:12.715Z,1.60
2018-07-02T00:54:41.435Z,3.50
2018-07-02T00:57:10.091Z,1.90
2018-07-02T00:59:38.787Z,1.77
2018-07-02T01:02:07.473Z,2.00
2018-07-02T01:04:36.066Z,2.10
2018-07-02T01:07:04.824Z,4.03
2018-07-02T01:09:33.442Z,2.37
2018-07-02T01:12:02.086Z,4.00
2018-07-02T01:14:30.713Z,2.87
2018-07-02T01:16:59.376Z,2.03
2018-07-02T01:19:28.026Z,1.53
2018-07-02T01:21:56.666Z,3.20
2018-07-02T01:24:25.318Z,1.40
2018-07-02T01:26:54.619Z,1.60
2018-07-02T01:29:23.251Z,1.80
2018-07-02T01:31:51.919Z,2.83
2018-07-02T01:34:20.570Z,3.87
2018-07-02T01:36:49.219Z,2.60
2018-07-02T01:39:17.847Z,2.43
2018-07-02T01:41:46.523Z,2.60
2018-07-02T01:44:15.198Z,1.70
2018-07-02T01:46:43.905Z,1.90
2018-07-02T01:49:12.726Z,3.30
2018-07-02T01:51:41.370Z,3.17
2018-07-02T01:54:10.010Z,3.23
2018-07-02T01:56:38.646Z,4.07
2018-07-02T01:59:07.311Z,1.47
2018-07-02T02:01:35.968Z,2.60
2018-07-02T02:04:04.636Z,4.77
2018-07-02T02:06:33.291Z,6.07
2018-07-02T02:09:01.983Z,3.10
2018-07-02T02:11:30.648Z,1.43
2018-07-02T02:13:59.352Z,2.73
2018-07-02T02:16:27.964Z,2.47
2018-07-02T02:18:56.708Z,2.53
2018-07-02T02:21:25.372Z,3.10
2018-07-02T02:23:53.986Z,3.60
2018-07-02T02:26:22.614Z,2.10
2018-07-02T02:28:51.411Z,2.57
2018-07-02T02:31:20.066Z,2.27
2018-07-02T02:33:48.736Z,2.87
2018-07-02T02:36:17.387Z,3.50
2018-07-02T02:38:46.054Z,2.20
2018-07-02T02:41:14.677Z,2.30
2018-07-02T02:43:43.290Z,2.53
2018-07-02T02:46:11.921Z,3.23
2018-07-02T02:48:40.586Z,1.47
2018-07-02T02:51:09.222Z,2.40
2018-07-02T02:53:37.895Z,5.47
2018-07-02T02:56:06.550Z,2.90
2018-07-02T02:58:35.190Z,2.70
2018-07-02T03:01:03.947Z,3.40
2018-07-02T03:03:32.598Z,1.60
2018-07-02T03:06:01.222Z,2.57
2018-07-02T03:08:29.910Z,3.43
2018-07-02T03:10:58.604Z,3.93
2018-07-02T03:13:27.255Z,2.90
2018-07-02T03:15:55.903Z,3.17
2018-07-02T03:18:24.522Z,4.00
2018-07-02T03:20:53.215Z,5.77
2018-07-02T03:23:21.847Z,2.60
2018-07-02T03:25:50.587Z,2.00
2018-07-02T03:28:19.546Z,3.70
2018-07-02T03:30:48.220Z,3.43
2018-07-02T03:33:16.859Z,2.50
2018-07-02T03:35:45.495Z,2.50
2018-07-02T03:38:14.326Z,2.47
2018-07-02T03:40:42.959Z,4.20
2018-07-02T03:43:11.645Z,2.43
2018-07-02T03:45:40.304Z,4.80
2018-07-02T03:48:08.927Z,2.27
2018-07-02T03:50:37.598Z,2.40
2018-07-02T03:53:06.295Z,2.30
2018-07-02T03:55:34.919Z,4.90
2018-07-02T03:58:03.616Z,2.03
2018-07-02T04:00:32.368Z,3.80
2018-07-02T04:03:01.155Z,4.30
2018-07-02T04:05:29.867Z,2.00
2018-07-02T04:07:58.534Z,4.60
2018-07-02T04:10:27.198Z,3.93
2018-07-02T04:12:55.849Z,2.60
2018-07-02T04:15:24.653Z,2.50
2018-07-02T04:17:53.385Z,4.10
2018-07-02T04:20:22.029Z,3.53
2018-07-02T04:22:50.715Z,2.07
2018-07-02T04:25:19.546Z,3.93
2018-07-02T04:27:48.213Z,3.00
2018-07-02T04:30:16.905Z,2.80
2018-07-02T04:32:45.751Z,3.07
2018-07-02T04:35:14.817Z,5.60
2018-07-02T04:37:43.447Z,4.60
2018-07-02T04:40:12.149Z,4.10
2018-07-02T04:42:40.801Z,2.87
2018-07-02T04:45:09.532Z,3.10
2018-07-02T04:47:38.174Z,4.20
2018-07-02T04:50:06.862Z,4.20
2018-07-02T04:52:35.554Z,4.27
2018-07-02T04:55:04.191Z,3.20
2018-07-02T04:57:32.910Z,4.60
2018-07-02T05:00:01.539Z,6.23
2018-07-02T05:02:30.274Z,2.50
2018-07-02T05:04:59.083Z,2.53
2018-07-02T05:07:27.748Z,2.87
2018-07-02T05:09:56.387Z,2.10
2018-07-02T05:12:25.063Z,2.17
2018-07-02T05:14:53.744Z,4.33
2018-07-02T05:17:22.416Z,5.70
2018-07-02T05:19:51.081Z,7.43
2018-07-02T05:22:19.893Z,3.30
2018-07-02T05:24:48.550Z,3.30
2018-07-02T05:27:17.268Z,9.33
2018-07-02T05:29:45.917Z,7.23
2018-07-02T05:32:14.555Z,3.83
2018-07-02T05:34:43.221Z,5.50
2018-07-02T05:37:11.871Z,2.40
2018-07-02T05:39:40.538Z,7.57
2018-07-02T05:42:09.243Z,5.10
2018-07-02T05:44:38.086Z,4.90
2018-07-02T05:47:06.939Z,4.67
2018-07-02T05:49:35.608Z,2.80
2018-07-02T05:52:04.276Z,5.40
2018-07-02T05:54:33.043Z,3.20
2018-07-02T05:57:01.750Z,2.97
2018-07-02T05:59:30.526Z,2.27
2018-07-02T06:01:59.212Z,2.87
2018-07-02T06:04:27.890Z,1.60
2018-07-02T06:06:56.576Z,4.30
2018-07-02T06:09:25.215Z,5.23
2018-07-02T06:11:54.001Z,4.37
2018-07-02T06:14:22.814Z,2.00
2018-07-02T06:16:51.602Z,3.73
2018-07-02T06:19:20.496Z,3.80
2018-07-02T06:21:49.206Z,2.90
2018-07-02T06:24:17.903Z,2.83
2018-07-02T06:26:46.575Z,2.40
2018-07-02T06:29:15.307Z,1.57
2018-07-02T06:31:44.012Z,4.27
2018-07-02T06:34:12.736Z,4.73
2018-07-02T06:36:41.418Z,2.67
2018-07-02T06:39:10.851Z,3.40
2018-07-02T06:41:39.480Z,2.33
2018-07-02T06:44:08.164Z,3.00
2018-07-02T06:46:36.814Z,2.83
2018-07-02T06:49:05.876Z,4.70
2018-07-02T06:51:34.558Z,6.10
2018-07-02T06:54:03.243Z,1.63
2018-07-02T06:56:31.960Z,3.57
2018-07-02T06:59:00.648Z,2.20
2018-07-02T07:01:29.456Z,3.13
2018-07-02T07:03:58.140Z,4.80
2018-07-02T07:06:26.823Z,5.63
2018-07-02T07:08:55.497Z,2.73
2018-07-02T07:11:24.212Z,1.50
2018-07-02T07:13:52.974Z,2.27
2018-07-02T07:16:21.676Z,1.70
2018-07-02T07:18:50.292Z,2.00
2018-07-02T07:21:18.996Z,1.60
2018-07-02T07:23:47.703Z,2.20
2018-07-02T07:26:16.604Z,2.83
2018-07-02T07:28:45.323Z,1.93
2018-07-02T07:31:14.057Z,1.60
2018-07-02T07:33:42.716Z,1.30
2018-07-02T07:36:11.391Z,2.77
2018-07-02T07:38:40.108Z,1.90
2018-07-02T07:41:08.781Z,3.13
2018-07-02T07:43:37.518Z,2.10
2018-07-02T07:46:07.067Z,2.27
2018-07-02T07:48:35.715Z,2.03
2018-07-02T07:51:04.376Z,1.70
2018-07-02T07:53:33.698Z,2.17
2018-07-02T07:56:02.367Z,2.20
2018-07-02T07:58:31.319Z,3.40
2018-07-02T08:01:00.013Z,1.80
2018-07-02T08:03:28.712Z,2.10
2018-07-02T08:05:57.376Z,4.60
2018-07-02T08:08:26.055Z,2.53
2018-07-02T08:10:54.732Z,3.53
2018-07-02T08:13:23.457Z,2.57
2018-07-02T08:15:52.155Z,1.80
2018-07-02T08:18:20.872Z,1.53
2018-07-02T08:20:49.544Z,1.83
2018-07-02T08:23:18.202Z,2.13
2018-07-02T08:25:46.956Z,2.47
2018-07-02T08:28:15.620Z,2.40
2018-07-02T08:30:44.323Z,3.00
2018-07-02T08:33:13.198Z,2.97
2018-07-02T08:35:41.920Z,4.90
2018-07-02T08:38:10.590Z,3.80
2018-07-02T08:40:39.338Z,2.67
2018-07-02T08:43:08.028Z,1.60
2018-07-02T08:45:36.711Z,9.10
2018-07-02T08:48:05.503Z,1.70
2018-07-02T08:50:34.239Z,4.03
2018-07-02T08:53:02.890Z,2.70
2018-07-02T08:55:31.557Z,3.50
2018-07-02T08:58:00.235Z,1.33
2018-07-02T09:00:28.966Z,2.40
2018-07-02T09:02:58.129Z,1.93
2018-07-02T09:05:26.847Z,2.30
2018-07-02T09:07:55.604Z,3.10
2018-07-02T09:10:24.602Z,3.03
2018-07-02T09:12:53.300Z,2.87
2018-07-02T09:15:22.035Z,3.53
2018-07-02T09:17:50.784Z,3.93
2018-07-02T09:20:19.491Z,4.83
2018-07-02T09:22:48.199Z,1.93
2018-07-02T09:25:16.898Z,3.33
2018-07-02T09:27:46.092Z,2.27
2018-07-02T09:30:14.820Z,6.37
2018-07-02T09:32:44.148Z,5.53
2018-07-02T09:35:13.111Z,5.03
2018-07-02T09:37:41.947Z,2.27
2018-07-02T09:40:10.717Z,2.30
2018-07-02T09:42:39.425Z,2.77
2018-07-02T09:45:11.426Z,1.50
2018-07-02T09:47:40.118Z,1.60
2018-07-02T09:50:09.036Z,1.50
2018-07-02T09:52:37.791Z,1.40
2018-07-02T09:55:06.560Z,1.80
2018-07-02T09:57:35.532Z,7.27
2018-07-02T10:00:04.720Z,2.73
2018-07-02T10:02:33.477Z,3.30
2018-07-02T10:05:02.196Z,1.70
2018-07-02T10:07:30.878Z,2.90
2018-07-02T10:09:59.790Z,1.87
2018-07-02T10:12:28.490Z,3.20
2018-07-02T10:14:57.249Z,2.47
2018-07-02T10:17:25.982Z,2.67
2018-07-02T10:19:54.650Z,1.87
2018-07-02T10:22:23.513Z,2.17
2018-07-02T10:24:52.945Z,3.77
2018-07-02T10:27:21.673Z,3.20
2018-07-02T10:29:50.315Z,3.30
2018-07-02T10:32:19.058Z,2.57
2018-07-02T10:34:47.768Z,1.93
2018-07-02T10:37:16.456Z,2.03
2018-07-02T10:39:45.123Z,2.37
2018-07-02T10:42:13.868Z,4.17
2018-07-02T10:44:42.561Z,2.30
2018-07-02T10:47:11.216Z,3.67
2018-07-02T10:49:39.987Z,2.83
2018-07-02T10:52:08.818Z,1.80
2018-07-02T10:54:37.495Z,2.37
2018-07-02T10:57:06.196Z,3.00
2018-07-02T10:59:34.830Z,1.97
2018-07-02T11:02:03.515Z,1.83
2018-07-02T11:04:32.204Z,4.07
2018-07-02T11:07:01.001Z,3.00
2018-07-02T11:09:29.777Z,2.17
2018-07-02T11:11:58.513Z,1.93
2018-07-02T11:14:27.237Z,3.33
2018-07-02T11:16:55.935Z,6.87
2018-07-02T11:19:24.718Z,2.47
2018-07-02T11:21:54.020Z,3.50
2018-07-02T11:24:22.865Z,2.70
2018-07-02T11:26:51.686Z,7.37
2018-07-02T11:29:20.440Z,6.23
2018-07-02T11:31:49.446Z,9.17
2018-07-02T11:34:18.200Z,2.97
2018-07-02T11:36:46.993Z,1.63
2018-07-02T11:39:15.642Z,2.47
2018-07-02T11:41:44.428Z,2.70
2018-07-02T11:44:13.158Z,2.87
2018-07-02T11:46:41.817Z,3.07
2018-07-02T11:49:10.466Z,2.63
2018-07-02T11:51:39.266Z,3.50
2018-07-02T11:54:07.919Z,1.90
2018-07-02T11:56:36.664Z,3.10
2018-07-02T11:59:05.473Z,1.60
2018-07-02T12:01:34.188Z,2.23
2018-07-02T12:04:02.940Z,2.70
2018-07-02T12:06:31.724Z,2.20
2018-07-02T12:09:00.456Z,2.13
2018-07-02T12:11:29.166Z,1.97
2018-07-02T12:13:58.092Z,2.90
2018-07-02T12:16:26.815Z,4.00
2018-07-02T12:18:55.499Z,2.73
2018-07-02T12:21:24.163Z,2.40
2018-07-02T12:23:53.213Z,3.43
2018-07-02T12:26:21.827Z,3.40
2018-07-02T12:28:50.521Z,2.97
2018-07-02T12:31:19.253Z,4.10
2018-07-02T12:33:48.320Z,2.80
2018-07-02T12:36:17.061Z,2.33
2018-07-02T12:38:45.747Z,2.40
2018-07-02T12:41:14.491Z,1.90
2018-07-02T12:43:43.190Z,2.10
2018-07-02T12:46:11.876Z,3.00
2018-07-02T12:48:40.562Z,3.07
2018-07-02T12:51:09.315Z,2.30
2018-07-02T12:53:38.052Z,2.30
2018-07-02T12:56:06.922Z,1.80
2018-07-02T12:58:35.894Z,1.97
2018-07-02T13:01:04.576Z,2.00
2018-07-02T13:03:33.287Z,3.60
2018-07-02T13:06:02.399Z,2.63
2018-07-02T13:08:31.138Z,1.40
2018-07-02T13:10:59.876Z,4.30
2018-07-02T13:13:28.558Z,12.57
2018-07-02T13:15:57.275Z,17.10
2018-07-02T13:18:26.178Z,23.37
2018-07-02T13:20:54.688Z,23.07
2018-07-02T13:23:23.406Z,31.07
2018-07-02T13:25:52.111Z,3.10
2018-07-02T13:28:20.808Z,16.70
2018-07-02T13:30:49.534Z,8.70
2018-07-02T13:33:18.191Z,4.03
2018-07-02T13:35:46.858Z,5.60
2018-07-02T13:38:15.531Z,5.53
2018-07-02T13:40:44.261Z,3.97
2018-07-02T13:43:12.973Z,3.73
2018-07-02T13:45:41.689Z,6.60
2018-07-02T13:48:10.323Z,4.13
2018-07-02T13:50:38.972Z,2.43
2018-07-02T13:53:07.671Z,3.60
2018-07-02T13:55:36.451Z,3.70
2018-07-02T13:58:05.164Z,4.27
2018-07-02T14:00:33.796Z,9.03
2018-07-02T14:03:02.500Z,15.60
2018-07-02T14:05:31.219Z,24.23
2018-07-02T14:07:59.894Z,22.37
2018-07-02T14:10:28.587Z,16.10
2018-07-02T14:12:57.237Z,20.27
2018-07-02T14:15:25.986Z,21.20
2018-07-02T14:17:54.649Z,9.00
2018-07-02T14:20:23.353Z,6.93
2018-07-02T14:22:51.990Z,6.07
2018-07-02T14:25:20.623Z,5.20
2018-07-02T14:27:49.284Z,6.10
2018-07-02T14:30:17.992Z,8.53
2018-07-02T14:32:46.843Z,3.10
2018-07-02T14:35:15.468Z,4.20
2018-07-02T14:37:44.099Z,2.73
2018-07-02T14:40:12.776Z,4.00
2018-07-02T14:42:41.568Z,2.23
2018-07-02T14:45:10.400Z,1.80
2018-07-02T14:47:39.075Z,3.70
2018-07-02T14:50:07.766Z,5.43
2018-07-02T14:52:36.516Z,8.80
2018-07-02T14:55:05.612Z,3.50
2018-07-02T14:57:34.400Z,4.63
2018-07-02T15:00:03.453Z,5.00
2018-07-02T15:02:32.111Z,4.53
2018-07-02T15:05:00.878Z,3.70
2018-07-02T15:07:29.558Z,3.53
2018-07-02T15:09:58.251Z,3.30
2018-07-02T15:12:26.985Z,4.03
2018-07-02T15:14:55.711Z,2.80
2018-07-02T15:17:24.436Z,2.73
2018-07-02T15:19:53.104Z,1.37
2018-07-02T15:22:21.795Z,9.33
2018-07-02T15:24:50.518Z,1.83
2018-07-02T15:27:19.206Z,3.13
2018-07-02T15:29:47.863Z,1.70
2018-07-02T15:32:16.561Z,1.97
2018-07-02T15:34:45.229Z,3.33
2018-07-02T15:37:13.900Z,1.83
2018-07-02T15:39:42.645Z,1.73
2018-07-02T15:42:11.323Z,2.50
2018-07-02T15:44:40.088Z,1.80
2018-07-02T15:47:08.849Z,2.00
2018-07-02T15:49:37.923Z,1.60
2018-07-02T15:52:07.935Z,1.50
2018-07-02T15:54:36.584Z,2.20
2018-07-02T15:57:05.262Z,1.90
2018-07-02T15:59:33.900Z,2.60
2018-07-02T16:02:02.570Z,1.73
2018-07-02T16:04:31.258Z,1.80
2018-07-02T16:07:00.337Z,4.00
2018-07-02T16:09:29.128Z,1.60
2018-07-02T16:11:57.919Z,1.70
2018-07-02T16:14:26.665Z,2.00
2018-07-02T16:16:55.337Z,2.87
2018-07-02T16:19:23.967Z,2.20
2018-07-02T16:21:52.620Z,2.80
2018-07-02T16:24:21.348Z,2.27
2018-07-02T16:26:50.020Z,4.03
2018-07-02T16:29:18.743Z,2.17
2018-07-02T16:31:47.436Z,1.83
2018-07-02T16:34:16.164Z,3.00
2018-07-02T16:36:44.781Z,3.13
2018-07-02T16:39:13.528Z,3.17
2018-07-02T16:41:42.271Z,2.70
2018-07-02T16:44:11.894Z,1.57
2018-07-02T16:46:40.558Z,2.40
2018-07-02T16:49:09.263Z,3.97
2018-07-02T16:51:37.951Z,2.37
2018-07-02T16:54:06.687Z,2.20
2018-07-02T16:56:35.673Z,2.97
2018-07-02T16:59:04.841Z,3.20
2018-07-02T17:01:33.515Z,5.10
2018-07-02T17:04:02.362Z,3.47
2018-07-02T17:06:31.040Z,2.33
2018-07-02T17:09:00.149Z,2.93
2018-07-02T17:11:29.020Z,2.20
2018-07-02T17:13:57.744Z,1.70
2018-07-02T17:16:26.456Z,2.63
2018-07-02T17:18:55.189Z,4.30
2018-07-02T17:21:23.823Z,2.10
2018-07-02T17:23:53.467Z,3.63
2018-07-02T17:26:22.137Z,2.50
2018-07-02T17:28:50.840Z,2.33
2018-07-02T17:31:19.888Z,1.60
2018-07-02T17:33:48.730Z,1.70
2018-07-02T17:36:17.403Z,3.17
2018-07-02T17:38:46.140Z,2.33
2018-07-02T17:41:14.939Z,2.00
2018-07-02T17:43:43.652Z,1.83
2018-07-02T17:46:12.303Z,2.17
2018-07-02T17:48:41.310Z,1.90
2018-07-02T17:51:10.021Z,2.53
2018-07-02T17:53:38.727Z,2.57
2018-07-02T17:56:07.383Z,2.50
2018-07-02T17:58:36.044Z,5.50
2018-07-02T18:01:04.708Z,1.90
2018-07-02T18:03:33.746Z,12.47
2018-07-02T18:06:03.298Z,20.40
2018-07-02T18:08:32.129Z,2.43
2018-07-02T18:11:00.848Z,4.20
2018-07-02T18:13:29.612Z,7.20
2018-07-02T18:15:58.855Z,3.30
2018-07-02T18:18:27.503Z,1.80
2018-07-02T18:20:56.584Z,3.13
2018-07-02T18:23:25.338Z,2.30
2018-07-02T18:25:54.067Z,2.77
2018-07-02T18:28:22.754Z,2.07
2018-07-02T18:30:52.443Z,2.57
2018-07-02T18:33:21.113Z,2.90
2018-07-02T18:35:49.795Z,3.97
2018-07-02T18:38:18.543Z,1.80
2018-07-02T18:40:47.228Z,2.60
2018-07-02T18:43:15.942Z,2.23
2018-07-02T18:45:44.632Z,3.77
2018-07-02T18:48:13.303Z,4.00
2018-07-02T18:50:42.034Z,3.93
2018-07-02T18:53:10.736Z,3.37
2018-07-02T18:55:39.381Z,2.60
2018-07-02T18:58:08.028Z,3.10
2018-07-02T19:00:36.669Z,2.90
2018-07-02T19:03:05.770Z,3.20
2018-07-02T19:05:34.423Z,3.43
2018-07-02T19:08:03.051Z,2.90
2018-07-02T19:10:31.783Z,5.47
2018-07-02T19:13:00.387Z,4.90
2018-07-02T19:15:29.688Z,3.53
2018-07-02T19:17:58.334Z,2.90
2018-07-02T19:20:27.004Z,4.20
2018-07-02T19:22:55.645Z,2.33
2018-07-02T19:25:24.347Z,1.80
2018-07-02T19:27:52.987Z,3.00
2018-07-02T19:30:21.816Z,2.90
2018-07-02T19:32:50.578Z,2.30
2018-07-02T19:35:19.364Z,3.13
2018-07-02T19:37:48.201Z,2.33
2018-07-02T19:40:17.067Z,3.00
2018-07-02T19:42:46.275Z,2.20
2018-07-02T19:45:15.136Z,6.17
2018-07-02T19:47:44.095Z,2.93
2018-07-02T19:50:13.092Z,1.90
2018-07-02T19:52:41.844Z,7.33
2018-07-02T19:55:10.468Z,2.43
2018-07-02T19:57:39.193Z,2.10
2018-07-02T20:00:07.820Z,3.20
2018-07-02T20:02:36.488Z,1.90
2018-07-02T20:05:05.167Z,3.07
2018-07-02T20:07:33.843Z,2.40
2018-07-02T20:10:02.713Z,2.87
2018-07-02T20:12:32.245Z,2.80
2018-07-02T20:15:01.624Z,2.43
2018-07-02T20:17:30.527Z,2.60
2018-07-02T20:19:59.503Z,3.07
2018-07-02T20:22:28.147Z,2.30
2018-07-02T20:24:56.866Z,3.20
2018-07-02T20:27:25.525Z,3.30
2018-07-02T20:29:54.224Z,1.80
2018-07-02T20:32:22.904Z,2.50
2018-07-02T20:34:51.580Z,2.13
2018-07-02T20:37:20.255Z,1.80
2018-07-02T20:39:48.912Z,3.20
2018-07-02T20:42:17.596Z,3.03
2018-07-02T20:44:46.428Z,2.70
2018-07-02T20:47:15.673Z,2.70
2018-07-02T20:49:44.678Z,2.70
2018-07-02T20:52:13.610Z,3.40
2018-07-02T20:54:42.275Z,2.10
2018-07-02T20:57:11.293Z,3.27
2018-07-02T20:59:40.023Z,2.30
2018-07-02T21:02:08.781Z,5.13
2018-07-02T21:04:37.549Z,6.50
2018-07-02T21:07:06.401Z,4.13
2018-07-02T21:09:35.126Z,3.17
2018-07-02T21:12:03.869Z,2.60
2018-07-02T21:14:32.556Z,2.00
2018-07-02T21:17:01.278Z,2.83
2018-07-02T21:19:30.019Z,2.43
2018-07-02T21:21:58.690Z,2.90
2018-07-02T21:24:27.409Z,23.50
2018-07-02T21:26:56.825Z,33.00
2018-07-02T21:29:25.784Z,31.13
2018-07-02T21:31:54.528Z,30.90
2018-07-02T21:34:23.267Z,43.03
2018-07-02T21:36:52.203Z,27.23
2018-07-02T21:39:20.954Z,33.93
2018-07-02T21:41:49.642Z,30.30
2018-07-02T21:44:18.366Z,36.40
2018-07-02T21:46:48.039Z,21.50
2018-07-02T21:49:16.767Z,21.30
2018-07-02T21:51:45.484Z,8.13
2018-07-02T21:54:14.193Z,6.03
2018-07-02T21:56:42.880Z,3.20
2018-07-02T21:59:11.613Z,3.07
2018-07-02T22:01:40.340Z,4.83
2018-07-02T22:04:09.154Z,11.83
2018-07-02T22:06:37.839Z,3.13
2018-07-02T22:09:07.810Z,3.10
2018-07-02T22:11:36.525Z,2.17
2018-07-02T22:14:05.672Z,2.33
2018-07-02T22:16:34.392Z,2.43
2018-07-02T22:19:03.137Z,3.20
2018-07-02T22:21:31.856Z,3.13
2018-07-02T22:24:00.585Z,2.17
2018-07-02T22:26:32.950Z,2.93
2018-07-02T22:29:01.663Z,5.20
2018-07-02T22:31:30.370Z,3.77
2018-07-02T22:33:59.281Z,2.30
2018-07-02T22:36:28.098Z,4.50
2018-07-02T22:38:56.772Z,3.87
2018-07-02T22:41:26.567Z,4.87
2018-07-02T22:43:55.482Z,5.10
2018-07-02T22:46:24.201Z,4.30
2018-07-02T22:48:52.847Z,5.00
2018-07-02T22:51:21.542Z,3.97
2018-07-02T22:53:50.224Z,5.53
2018-07-02T22:56:18.872Z,4.13
2018-07-02T22:58:47.568Z,5.47
2018-07-02T23:01:16.260Z,9.43
2018-07-02T23:03:44.998Z,2.93
2018-07-02T23:06:13.682Z,3.80
2018-07-02T23:08:42.767Z,5.40
2018-07-02T23:11:11.403Z,3.13
2018-07-02T23:13:40.048Z,3.57
2018-07-02T23:16:08.774Z,4.03
2018-07-02T23:18:37.416Z,3.03
2018-07-02T23:21:06.130Z,3.00
2018-07-02T23:23:34.789Z,3.63
2018-07-02T23:26:03.498Z,3.17
2018-07-02T23:28:32.208Z,3.60
2018-07-02T23:31:00.848Z,2.33
2018-07-02T23:33:29.536Z,5.60
2018-07-02T23:35:58.218Z,4.37
2018-07-02T23:38:26.848Z,3.83
2018-07-02T23:40:55.486Z,3.40
2018-07-02T23:43:24.143Z,4.00
2018-07-02T23:45:52.762Z,5.00
2018-07-02T23:48:21.421Z,4.33
2018-07-02T23:50:50.072Z,5.83
2018-07-02T23:53:18.736Z,4.40
2018-07-02T23:55:47.398Z,3.57
2018-07-02T23:58:16.123Z,3.73
